Aérodrome :
LOGIN :

S'inscrire | Disclaimer

   EN    FR    IT 

 










Légende :    VFR   VFR Marginal   IFR   IFR Intensif   IFR Très Intensif
Visi : 
Plafond : 
>= 8 km
>= 3000ft
5 à 8 km
1000 à 3000 ft
1500m à 5 km
500 à 1000 ft
800 à 1500m
200 à 500 ft
< 800m
< 200 ft
Symboles :   Orages  Brouillard  Fortes neiges  Fortes précipitations  Vent > 20 kt
SIGMETs :   Divers  Orages  Givrage  Turbulence  Onde Orograph.  Cendres Volcan.







- Altitude de l'aérodrome : 686 ft


LYKV - Ladevci

DERNIER METAR :
  • 161500Z VRB02KT CAVOK 10/M01 Q1030 NOSIG

METARs EXPIRÉS :
  • 161430Z 26004KT 220V300 CAVOK 10/M01 Q1031 NOSIG
  • 161400Z 24004KT 130V290 CAVOK 10/M01 Q1031 NOSIG
  • 161330Z 25003KT 180V320 9999 FEW040 10/M01 Q1031 NOSIG
  • 161300Z VRB02KT 9999 FEW040 10/M01 Q1031 NOSIG
  • 161230Z 32003KT 220V020 9999 FEW040 09/M01 Q1031 NOSIG

TAF TAF LYKV
Valide du 16 à 12h jusqu'au 17 à 12h UTC


161100Z 1612/1712 29005KT 9999 SCT040 TX11/1712Z TNM01/1706Z
TEMPO 1705/1707 3000 BR
Pas de NOTAMs connus pour ce terrain.



MET'MAP, la Météo Aéronautique d'un coup d'oeil ! - Copyright ORBIFLY Décembre 2007 - Disclaimer

ORBIFLY MET'MAP TEAM :

Programmation & Développement : Alexandra Zaïnal
Conception & Développement : Baudouin d'Aumeries
Co-Programmation & Développement : Marc-Olivier Méhu
Soutien technique & logistique : Manuel Goepfert

Contact : metmap@orbifly.com




SOURCES & CREDITS :

   NOAA